createdAt,value
2018-08-11T00:00:13.748Z,1.80
2018-08-11T00:02:42.165Z,1.40
2018-08-11T00:05:10.649Z,1.20
2018-08-11T00:07:39.079Z,1.50
2018-08-11T00:10:08.466Z,1.47
2018-08-11T00:12:37.158Z,1.63
2018-08-11T00:15:07.144Z,1.60
2018-08-11T00:17:35.606Z,1.70
2018-08-11T00:20:05.313Z,1.53
2018-08-11T00:22:33.818Z,1.70
2018-08-11T00:25:02.294Z,1.80
2018-08-11T00:27:31.784Z,1.73
2018-08-11T00:30:01.780Z,1.70
2018-08-11T00:32:30.352Z,1.93
2018-08-11T00:34:59.756Z,2.07
2018-08-11T00:37:28.241Z,2.10
2018-08-11T00:39:56.625Z,1.90
2018-08-11T00:42:25.074Z,2.10
2018-08-11T00:44:53.480Z,2.00
2018-08-11T00:47:23.637Z,2.20
2018-08-11T00:49:52.085Z,2.00
2018-08-11T00:52:20.509Z,2.17
2018-08-11T00:54:48.926Z,1.87
2018-08-11T00:57:17.349Z,2.00
2018-08-11T00:59:45.889Z,1.90
2018-08-11T01:02:14.311Z,1.97
2018-08-11T01:04:42.675Z,1.77
2018-08-11T01:07:11.201Z,1.60
2018-08-11T01:09:39.597Z,1.60
2018-08-11T01:12:08.062Z,1.70
2018-08-11T01:14:36.526Z,1.70
2018-08-11T01:17:04.950Z,2.03
2018-08-11T01:19:33.413Z,1.70
2018-08-11T01:22:02.384Z,1.83
2018-08-11T01:24:30.786Z,2.10
2018-08-11T01:26:59.127Z,1.70
2018-08-11T01:29:27.577Z,1.60
2018-08-11T01:31:56.027Z,1.50
2018-08-11T01:34:24.426Z,1.60
2018-08-11T01:36:52.891Z,1.70
2018-08-11T01:39:21.301Z,1.50
2018-08-11T01:41:49.701Z,1.60
2018-08-11T01:44:18.187Z,1.50
2018-08-11T01:46:46.610Z,1.37
2018-08-11T01:49:15.058Z,1.70
2018-08-11T01:51:43.653Z,1.60
2018-08-11T01:54:12.270Z,1.70
2018-08-11T01:56:40.649Z,1.60
2018-08-11T01:59:09.038Z,1.53
2018-08-11T02:01:38.036Z,1.73
2018-08-11T02:04:06.524Z,1.60
2018-08-11T02:06:34.897Z,1.77
2018-08-11T02:09:03.726Z,1.60
2018-08-11T02:11:32.149Z,1.73
2018-08-11T02:14:00.505Z,1.80
2018-08-11T02:16:28.902Z,1.47
2018-08-11T02:18:57.364Z,1.70
2018-08-11T02:21:25.819Z,2.00
2018-08-11T02:23:54.394Z,2.00
2018-08-11T02:26:23.367Z,1.75
2018-08-11T02:28:51.893Z,1.80
2018-08-11T02:31:20.421Z,1.50
2018-08-11T02:33:48.915Z,1.60
2018-08-11T02:36:17.326Z,1.60
2018-08-11T02:38:45.720Z,1.70
2018-08-11T02:41:14.124Z,1.80
2018-08-11T02:43:42.535Z,1.63
2018-08-11T02:46:10.964Z,1.73
2018-08-11T02:48:39.367Z,1.53
2018-08-11T02:51:07.917Z,1.63
2018-08-11T02:53:36.369Z,1.97
2018-08-11T02:56:04.770Z,1.83
2018-08-11T02:58:33.218Z,1.80
2018-08-11T03:01:01.625Z,1.87
2018-08-11T03:03:30.364Z,1.97
2018-08-11T03:05:58.792Z,1.90
2018-08-11T03:08:27.228Z,2.13
2018-08-11T03:10:55.637Z,1.77
2018-08-11T03:13:25.018Z,2.07
2018-08-11T03:15:53.447Z,2.27
2018-08-11T03:18:22.004Z,1.87
2018-08-11T03:20:50.406Z,2.00
2018-08-11T03:23:18.782Z,2.00
2018-08-11T03:25:47.178Z,1.87
2018-08-11T03:28:15.560Z,2.03
2018-08-11T03:30:43.941Z,2.20
2018-08-11T03:33:12.393Z,2.00
2018-08-11T03:35:40.878Z,2.13
2018-08-11T03:38:09.314Z,2.27
2018-08-11T03:40:37.737Z,2.53
2018-08-11T03:43:06.206Z,2.40
2018-08-11T03:45:34.589Z,2.67
2018-08-11T03:48:03.142Z,2.30
2018-08-11T03:50:31.626Z,2.50
2018-08-11T03:53:00.010Z,2.67
2018-08-11T03:55:28.726Z,2.67
2018-08-11T03:57:57.107Z,2.50
2018-08-11T04:00:25.589Z,2.10
2018-08-11T04:02:54.004Z,2.40
2018-08-11T04:05:23.330Z,2.40
2018-08-11T04:07:51.761Z,2.50
2018-08-11T04:10:20.139Z,2.83
2018-08-11T04:12:48.532Z,2.50
2018-08-11T04:15:16.921Z,2.80
2018-08-11T04:17:46.021Z,3.20
2018-08-11T04:20:14.432Z,2.80
2018-08-11T04:22:42.837Z,2.77
2018-08-11T04:25:11.219Z,3.03
2018-08-11T04:27:39.701Z,2.87
2018-08-11T04:30:09.490Z,3.03
2018-08-11T04:32:37.940Z,2.47
2018-08-11T04:35:06.349Z,3.40
2018-08-11T04:37:34.781Z,3.27
2018-08-11T04:40:03.321Z,3.10
2018-08-11T04:42:31.745Z,3.40
2018-08-11T04:45:00.194Z,3.07
2018-08-11T04:47:28.597Z,3.30
2018-08-11T04:49:56.989Z,3.20
2018-08-11T04:52:25.472Z,3.30
2018-08-11T04:54:53.943Z,3.40
2018-08-11T04:57:22.484Z,3.07
2018-08-11T04:59:50.907Z,3.43
2018-08-11T05:02:19.391Z,3.40
2018-08-11T05:04:47.762Z,3.10
2018-08-11T05:07:16.193Z,3.30
2018-08-11T05:09:44.573Z,3.10
2018-08-11T05:12:12.965Z,3.20
2018-08-11T05:14:41.433Z,3.30
2018-08-11T05:17:09.836Z,3.33
2018-08-11T05:19:38.326Z,3.27
2018-08-11T05:22:06.762Z,3.13
2018-08-11T05:24:35.777Z,3.37
2018-08-11T05:27:04.174Z,3.40
2018-08-11T05:29:33.154Z,3.50
2018-08-11T05:32:01.764Z,3.30
2018-08-11T05:34:30.182Z,3.37
2018-08-11T05:36:58.541Z,3.33
2018-08-11T05:39:26.958Z,3.50
2018-08-11T05:41:55.389Z,3.80
2018-08-11T05:44:23.875Z,3.47
2018-08-11T05:46:52.287Z,3.53
2018-08-11T05:49:20.718Z,3.90
2018-08-11T05:51:49.142Z,3.67
2018-08-11T05:54:17.528Z,3.53
2018-08-11T05:56:45.951Z,3.80
2018-08-11T05:59:14.342Z,4.00
2018-08-11T06:01:42.743Z,3.70
2018-08-11T06:04:11.157Z,4.00
2018-08-11T06:06:39.553Z,3.93
2018-08-11T06:09:09.003Z,2.63
2018-08-11T06:11:37.893Z,3.73
2018-08-11T06:14:06.662Z,3.77
2018-08-11T06:16:35.165Z,4.10
2018-08-11T06:19:03.610Z,3.13
2018-08-11T06:21:32.009Z,3.60
2018-08-11T06:24:00.398Z,3.80
2018-08-11T06:26:28.828Z,3.80
2018-08-11T06:28:57.234Z,3.90
2018-08-11T06:31:25.771Z,3.37
2018-08-11T06:33:54.363Z,3.80
2018-08-11T06:36:22.805Z,2.87
2018-08-11T06:38:51.223Z,3.63
2018-08-11T06:41:19.675Z,3.70
2018-08-11T06:43:48.104Z,3.57
2018-08-11T06:46:16.597Z,3.53
2018-08-11T06:48:45.066Z,3.33
2018-08-11T06:51:13.473Z,4.40
2018-08-11T06:53:42.628Z,3.80
2018-08-11T06:56:11.289Z,3.70
2018-08-11T06:58:39.681Z,3.90
2018-08-11T07:01:08.336Z,3.57
2018-08-11T07:03:36.810Z,4.00
2018-08-11T07:06:05.346Z,3.57
2018-08-11T07:08:33.941Z,3.23
2018-08-11T07:11:02.892Z,3.53
2018-08-11T07:13:31.291Z,3.43
2018-08-11T07:15:59.657Z,3.70
2018-08-11T07:18:28.097Z,3.30
2018-08-11T07:20:56.450Z,3.70
2018-08-11T07:23:24.824Z,2.53
2018-08-11T07:25:53.255Z,3.37
2018-08-11T07:28:21.642Z,3.10
2018-08-11T07:30:50.175Z,3.37
2018-08-11T07:33:18.621Z,2.00
2018-08-11T07:35:47.078Z,2.90
2018-08-11T07:38:15.591Z,2.83
2018-08-11T07:40:44.118Z,3.10
2018-08-11T07:43:13.412Z,3.20
2018-08-11T07:45:41.873Z,3.20
2018-08-11T07:48:10.326Z,3.10
2018-08-11T07:50:38.801Z,3.10
2018-08-11T07:53:07.240Z,3.10
2018-08-11T07:55:35.653Z,2.30
2018-08-11T07:58:04.232Z,3.20
2018-08-11T08:00:33.014Z,2.90
2018-08-11T08:03:01.379Z,3.03
2018-08-11T08:05:29.870Z,3.20
2018-08-11T08:07:58.280Z,3.00
2018-08-11T08:10:26.704Z,2.87
2018-08-11T08:12:55.257Z,1.83
2018-08-11T08:15:24.284Z,2.90
2018-08-11T08:17:52.733Z,2.80
2018-08-11T08:20:21.185Z,3.00
2018-08-11T08:22:50.825Z,3.03
2018-08-11T08:25:19.300Z,3.10
2018-08-11T08:27:47.667Z,3.07
2018-08-11T08:30:16.884Z,2.40
2018-08-11T08:32:45.525Z,3.07
2018-08-11T08:35:13.889Z,3.23
2018-08-11T08:37:42.416Z,2.43
2018-08-11T08:40:10.850Z,2.10
2018-08-11T08:42:39.293Z,2.60
2018-08-11T08:45:10.240Z,2.97
2018-08-11T08:47:38.730Z,1.97
2018-08-11T08:50:07.492Z,3.30
2018-08-11T08:52:35.952Z,3.10
2018-08-11T08:55:04.394Z,2.63
2018-08-11T08:57:32.866Z,2.37
2018-08-11T09:00:01.361Z,2.03
2018-08-11T09:02:29.745Z,2.97
2018-08-11T09:04:58.911Z,2.70
2018-08-11T09:07:27.250Z,2.43
2018-08-11T09:09:55.686Z,2.57
2018-08-11T09:12:24.285Z,2.80
2018-08-11T09:14:52.659Z,1.90
2018-08-11T09:17:21.081Z,3.27
2018-08-11T09:19:49.653Z,2.83
2018-08-11T09:22:18.138Z,3.20
2018-08-11T09:24:46.594Z,3.10
2018-08-11T09:27:15.103Z,2.00
2018-08-11T09:29:44.132Z,2.40
2018-08-11T09:32:12.547Z,1.90
2018-08-11T09:34:41.032Z,2.03
2018-08-11T09:37:09.517Z,2.83
2018-08-11T09:39:37.921Z,3.03
2018-08-11T09:42:07.105Z,3.30
2018-08-11T09:44:35.609Z,3.23
2018-08-11T09:47:04.100Z,2.97
2018-08-11T09:49:32.657Z,2.13
2018-08-11T09:52:01.091Z,2.20
2018-08-11T09:54:29.537Z,2.43
2018-08-11T09:56:58.022Z,1.93
2018-08-11T09:59:26.641Z,2.00
2018-08-11T10:02:00.435Z,2.00
2018-08-11T10:04:28.874Z,1.40
2018-08-11T10:06:57.349Z,2.10
2018-08-11T10:09:26.104Z,2.27
2018-08-11T10:11:54.655Z,2.00
2018-08-11T10:14:23.233Z,2.00
2018-08-11T10:16:51.782Z,2.00
2018-08-11T10:19:20.370Z,1.70
2018-08-11T10:21:48.961Z,1.90
2018-08-11T10:24:17.557Z,1.90
2018-08-11T10:26:46.025Z,2.17
2018-08-11T10:29:14.578Z,2.07
2018-08-11T10:31:43.059Z,2.00
2018-08-11T10:34:11.477Z,2.03
2018-08-11T10:36:39.886Z,1.80
2018-08-11T10:39:10.657Z,1.80
2018-08-11T10:41:39.524Z,2.10
2018-08-11T10:44:08.321Z,2.00
2018-08-11T10:46:36.907Z,2.00
2018-08-11T10:49:06.298Z,2.00
2018-08-11T10:51:34.807Z,1.40
2018-08-11T10:54:03.401Z,1.77
2018-08-11T10:56:33.302Z,1.80
2018-08-11T10:59:02.729Z,1.90
2018-08-11T11:01:31.749Z,1.50
2018-08-11T11:04:00.163Z,2.07
2018-08-11T11:06:28.607Z,1.90
2018-08-11T11:08:57.025Z,2.00
2018-08-11T11:11:25.473Z,2.30
2018-08-11T11:13:53.857Z,2.37
2018-08-11T11:16:22.361Z,2.37
2018-08-11T11:18:51.629Z,2.30
2018-08-11T11:21:20.082Z,1.73
2018-08-11T11:23:48.466Z,2.20
2018-08-11T11:26:16.873Z,2.00
2018-08-11T11:28:45.283Z,2.00
2018-08-11T11:31:13.769Z,1.83
2018-08-11T11:33:42.202Z,2.03
2018-08-11T11:36:10.581Z,2.07
2018-08-11T11:38:38.957Z,2.10
2018-08-11T11:41:07.365Z,2.53
2018-08-11T11:43:35.804Z,2.20
2018-08-11T11:46:04.294Z,2.10
2018-08-11T11:48:32.790Z,2.10
2018-08-11T11:51:01.235Z,1.83
2018-08-11T11:53:29.605Z,2.10
2018-08-11T11:55:57.997Z,1.60
2018-08-11T11:58:26.399Z,2.20
2018-08-11T12:00:54.842Z,1.60
2018-08-11T12:03:23.243Z,1.70
2018-08-11T12:05:51.783Z,2.10
2018-08-11T12:08:20.180Z,1.80
2018-08-11T12:10:48.782Z,1.53
2018-08-11T12:13:17.237Z,2.00
2018-08-11T12:15:46.514Z,1.80
2018-08-11T12:18:15.037Z,1.70
2018-08-11T12:20:43.648Z,1.70
2018-08-11T12:23:12.214Z,1.40
2018-08-11T12:25:40.631Z,1.90
2018-08-11T12:28:09.065Z,1.50
2018-08-11T12:30:37.499Z,1.90
2018-08-11T12:33:05.844Z,1.77
2018-08-11T12:35:34.412Z,1.73
2018-08-11T12:38:02.994Z,1.90
2018-08-11T12:40:31.610Z,1.67
2018-08-11T12:43:00.050Z,1.80
2018-08-11T12:45:29.432Z,1.90
2018-08-11T12:47:57.938Z,1.40
2018-08-11T12:50:26.413Z,1.80
2018-08-11T12:52:54.878Z,1.83
2018-08-11T12:55:23.296Z,1.60
2018-08-11T12:57:51.869Z,1.80
2018-08-11T13:00:20.379Z,2.20
2018-08-11T13:02:48.763Z,1.60
2018-08-11T13:05:17.171Z,1.77
2018-08-11T13:07:45.638Z,1.80
2018-08-11T13:10:14.115Z,1.97
2018-08-11T13:12:42.645Z,1.50
2018-08-11T13:15:11.149Z,1.57
2018-08-11T13:17:39.537Z,1.50
2018-08-11T13:20:08.441Z,1.30
2018-08-11T13:22:37.042Z,1.50
2018-08-11T13:25:05.531Z,1.97
2018-08-11T13:27:34.553Z,2.07
2018-08-11T13:30:03.084Z,2.20
2018-08-11T13:32:31.580Z,1.97
2018-08-11T13:35:00.191Z,2.30
2018-08-11T13:37:28.724Z,1.90
2018-08-11T13:39:57.129Z,2.57
2018-08-11T13:42:25.561Z,2.07
2018-08-11T13:44:54.030Z,2.40
2018-08-11T13:47:22.495Z,1.93
2018-08-11T13:49:51.076Z,2.60
2018-08-11T13:52:19.489Z,1.90
2018-08-11T13:54:47.897Z,2.87
2018-08-11T13:57:16.300Z,2.47
2018-08-11T13:59:46.464Z,2.10
2018-08-11T14:02:14.898Z,1.77
2018-08-11T14:04:43.268Z,1.87
2018-08-11T14:07:12.136Z,1.73
2018-08-11T14:09:40.657Z,1.20
2018-08-11T14:12:09.302Z,1.50
2018-08-11T14:14:37.888Z,1.63
2018-08-11T14:17:06.614Z,3.10
2018-08-11T14:19:35.019Z,1.83
2018-08-11T14:22:03.528Z,2.57
2018-08-11T14:24:32.388Z,2.37
2018-08-11T14:27:00.967Z,2.10
2018-08-11T14:29:29.592Z,1.77
2018-08-11T14:31:58.329Z,1.90
2018-08-11T14:34:26.961Z,2.10
2018-08-11T14:36:55.771Z,2.57
2018-08-11T14:39:25.494Z,2.10
2018-08-11T14:41:53.966Z,1.87
2018-08-11T14:44:22.732Z,2.70
2018-08-11T14:46:52.807Z,2.80
2018-08-11T14:49:21.400Z,2.40
2018-08-11T14:51:49.933Z,2.10
2018-08-11T14:54:18.483Z,2.70
2018-08-11T14:56:46.925Z,2.00
2018-08-11T14:59:16.174Z,2.50
2018-08-11T15:01:44.565Z,2.77
2018-08-11T15:04:13.286Z,2.33
2018-08-11T15:06:42.585Z,2.63
2018-08-11T15:09:11.702Z,2.80
2018-08-11T15:11:40.581Z,2.47
2018-08-11T15:14:11.118Z,1.93
2018-08-11T15:16:39.770Z,2.00
2018-08-11T15:19:08.397Z,1.90
2018-08-11T15:21:36.854Z,3.03
2018-08-11T15:24:05.237Z,2.67
2018-08-11T15:26:33.693Z,1.90
2018-08-11T15:29:02.591Z,2.37
2018-08-11T15:31:31.028Z,1.80
2018-08-11T15:33:59.458Z,2.50
2018-08-11T15:36:27.932Z,3.17
2018-08-11T15:38:56.445Z,3.10
2018-08-11T15:41:24.822Z,2.73
2018-08-11T15:43:53.899Z,3.73
2018-08-11T15:46:22.354Z,2.83
2018-08-11T15:48:50.904Z,3.60
2018-08-11T15:51:20.020Z,3.80
2018-08-11T15:53:48.562Z,3.63
2018-08-11T15:56:17.124Z,4.40
2018-08-11T15:58:45.689Z,3.83
2018-08-11T16:01:14.096Z,3.63
2018-08-11T16:03:42.524Z,3.50
2018-08-11T16:06:11.101Z,3.33
2018-08-11T16:08:39.534Z,3.60
2018-08-11T16:11:07.981Z,2.80
2018-08-11T16:13:36.342Z,2.67
2018-08-11T16:16:04.787Z,2.60
2018-08-11T16:18:33.340Z,3.20
2018-08-11T16:21:01.963Z,2.93
2018-08-11T16:23:30.484Z,3.20
2018-08-11T16:25:58.881Z,2.93
2018-08-11T16:28:28.067Z,2.93
2018-08-11T16:30:56.676Z,2.77
2018-08-11T16:33:25.124Z,3.13
2018-08-11T16:35:53.508Z,3.63
2018-08-11T16:38:22.267Z,3.00
2018-08-11T16:40:50.919Z,3.57
2018-08-11T16:43:19.338Z,4.13
2018-08-11T16:45:48.085Z,4.40
2018-08-11T16:48:16.774Z,3.53
2018-08-11T16:50:45.224Z,4.10
2018-08-11T16:53:13.853Z,4.73
2018-08-11T16:55:42.289Z,5.10
2018-08-11T16:58:10.783Z,4.53
2018-08-11T17:00:39.523Z,4.70
2018-08-11T17:03:07.881Z,4.57
2018-08-11T17:05:37.166Z,4.10
2018-08-11T17:08:05.931Z,4.00
2018-08-11T17:10:34.518Z,4.10
2018-08-11T17:13:03.021Z,3.70
2018-08-11T17:15:31.750Z,4.30
2018-08-11T17:18:00.397Z,4.67
2018-08-11T17:20:28.998Z,4.50
2018-08-11T17:22:57.719Z,4.60
2018-08-11T17:25:26.077Z,4.30
2018-08-11T17:27:54.902Z,4.40
2018-08-11T17:30:23.286Z,4.27
2018-08-11T17:32:52.016Z,4.57
2018-08-11T17:35:20.579Z,4.47
2018-08-11T17:37:49.072Z,4.00
2018-08-11T17:40:18.545Z,4.50
2018-08-11T17:42:46.945Z,4.33
2018-08-11T17:45:15.957Z,4.50
2018-08-11T17:47:44.625Z,4.20
2018-08-11T17:50:13.015Z,3.90
2018-08-11T17:52:41.462Z,4.67
2018-08-11T17:55:09.939Z,4.17
2018-08-11T17:57:38.459Z,3.90
2018-08-11T18:00:06.905Z,4.10
2018-08-11T18:02:35.673Z,3.83
2018-08-11T18:05:04.793Z,3.80
2018-08-11T18:07:33.206Z,3.70
2018-08-11T18:10:01.594Z,3.60
2018-08-11T18:12:30.065Z,3.67
2018-08-11T18:14:58.492Z,3.67
2018-08-11T18:17:27.249Z,3.47
2018-08-11T18:19:55.697Z,3.47
2018-08-11T18:22:24.409Z,3.80
2018-08-11T18:24:53.119Z,4.00
2018-08-11T18:27:21.565Z,3.70
2018-08-11T18:29:50.131Z,3.40
2018-08-11T18:32:18.585Z,3.43
2018-08-11T18:34:47.308Z,3.17
2018-08-11T18:37:15.991Z,3.20
2018-08-11T18:39:44.630Z,3.30
2018-08-11T18:42:13.101Z,3.40
2018-08-11T18:44:41.877Z,3.10
2018-08-11T18:47:10.354Z,3.20
2018-08-11T18:49:38.834Z,3.00
2018-08-11T18:52:07.398Z,2.90
2018-08-11T18:54:35.712Z,3.00
2018-08-11T18:57:04.241Z,2.70
2018-08-11T18:59:32.664Z,2.60
2018-08-11T19:02:01.749Z,2.70
2018-08-11T19:04:31.161Z,2.70
2018-08-11T19:06:59.713Z,2.60
2018-08-11T19:09:28.112Z,2.50
2018-08-11T19:11:56.518Z,2.60
2018-08-11T19:14:25.086Z,2.40
2018-08-11T19:16:53.634Z,2.40
2018-08-11T19:19:22.038Z,2.10
2018-08-11T19:21:51.201Z,2.20
2018-08-11T19:24:19.748Z,2.13
2018-08-11T19:26:48.197Z,2.20
2018-08-11T19:29:16.889Z,2.00
2018-08-11T19:31:45.300Z,2.30
2018-08-11T19:34:14.370Z,2.20
2018-08-11T19:36:43.238Z,2.20
2018-08-11T19:39:13.070Z,2.20
2018-08-11T19:41:41.930Z,2.40
2018-08-11T19:44:10.809Z,1.97
2018-08-11T19:46:39.496Z,2.20
2018-08-11T19:49:09.592Z,3.07
2018-08-11T19:51:39.156Z,2.20
2018-08-11T19:54:07.587Z,2.10
2018-08-11T19:56:36.114Z,2.00
2018-08-11T19:59:05.723Z,2.40
2018-08-11T20:01:34.196Z,2.27
2018-08-11T20:04:02.782Z,2.20
2018-08-11T20:06:31.394Z,2.10
2018-08-11T20:09:00.465Z,2.40
2018-08-11T20:11:29.117Z,2.07
2018-08-11T20:13:57.794Z,2.20
2018-08-11T20:16:26.460Z,2.20
2018-08-11T20:18:56.129Z,2.20
2018-08-11T20:21:24.576Z,2.10
2018-08-11T20:23:53.080Z,2.07
2018-08-11T20:26:21.525Z,2.10
2018-08-11T20:28:49.972Z,2.20
2018-08-11T20:31:18.667Z,2.10
2018-08-11T20:33:47.201Z,2.10
2018-08-11T20:36:15.794Z,2.20
2018-08-11T20:38:44.392Z,2.40
2018-08-11T20:41:14.254Z,2.43
2018-08-11T20:43:42.832Z,2.87
2018-08-11T20:46:11.339Z,3.00
2018-08-11T20:48:40.095Z,2.77
2018-08-11T20:51:08.636Z,2.90
2018-08-11T20:53:37.645Z,3.10
2018-08-11T20:56:06.483Z,3.13
2018-08-11T20:58:37.374Z,2.90
2018-08-11T21:01:08.133Z,3.33
2018-08-11T21:03:36.670Z,3.10
2018-08-11T21:06:05.185Z,3.30
2018-08-11T21:08:33.664Z,3.40
2018-08-11T21:11:02.606Z,3.17
2018-08-11T21:13:31.621Z,3.50
2018-08-11T21:16:00.090Z,3.77
2018-08-11T21:18:28.606Z,3.37
2018-08-11T21:20:59.641Z,3.70
2018-08-11T21:23:28.502Z,3.57
2018-08-11T21:25:57.791Z,3.90
2018-08-11T21:28:26.346Z,4.47
2018-08-11T21:30:54.962Z,4.90
2018-08-11T21:33:23.480Z,4.60
2018-08-11T21:35:51.875Z,5.13
2018-08-11T21:38:20.689Z,5.40
2018-08-11T21:40:49.166Z,5.30
2018-08-11T21:43:17.814Z,4.53
2018-08-11T21:45:46.331Z,4.20
2018-08-11T21:48:14.757Z,4.47
2018-08-11T21:50:44.586Z,3.80
2018-08-11T21:53:13.005Z,3.80
2018-08-11T21:55:41.427Z,3.80
2018-08-11T21:58:09.873Z,3.67
2018-08-11T22:00:38.610Z,3.90
2018-08-11T22:03:08.154Z,3.67
2018-08-11T22:05:36.633Z,3.63
2018-08-11T22:08:05.102Z,3.30
2018-08-11T22:10:33.621Z,3.37
2018-08-11T22:13:02.104Z,3.53
2018-08-11T22:15:30.546Z,3.60
2018-08-11T22:17:58.944Z,3.50
2018-08-11T22:20:27.344Z,3.63
2018-08-11T22:22:55.844Z,4.20
2018-08-11T22:25:24.326Z,3.80
2018-08-11T22:27:52.727Z,3.77
2018-08-11T22:30:21.143Z,3.80
2018-08-11T22:32:49.597Z,3.60
2018-08-11T22:35:18.035Z,3.63
2018-08-11T22:37:46.509Z,3.73
2018-08-11T22:40:15.013Z,3.80
2018-08-11T22:42:43.394Z,4.00
2018-08-11T22:45:12.452Z,3.90
2018-08-11T22:47:40.901Z,3.83
2018-08-11T22:50:11.118Z,3.80
2018-08-11T22:52:40.161Z,4.10
2018-08-11T22:55:08.802Z,4.50
2018-08-11T22:57:37.349Z,4.50
2018-08-11T23:00:18.639Z,4.40
2018-08-11T23:02:47.133Z,5.17
2018-08-11T23:05:16.801Z,4.93
2018-08-11T23:07:45.185Z,4.97
2018-08-11T23:10:14.646Z,4.90
2018-08-11T23:12:43.797Z,4.90
2018-08-11T23:15:16.987Z,4.50
2018-08-11T23:17:47.637Z,5.17
2018-08-11T23:20:16.421Z,5.10
2018-08-11T23:22:46.758Z,5.00
2018-08-11T23:25:15.851Z,4.83
2018-08-11T23:27:44.332Z,4.70
2018-08-11T23:30:14.708Z,4.70
2018-08-11T23:32:43.744Z,4.63
2018-08-11T23:35:12.518Z,5.00
2018-08-11T23:37:41.404Z,5.00
2018-08-11T23:40:10.514Z,4.93
2018-08-11T23:42:39.014Z,5.13
2018-08-11T23:45:12.113Z,5.50
2018-08-11T23:47:41.289Z,5.40
2018-08-11T23:50:10.514Z,5.33
2018-08-11T23:52:39.334Z,5.33
2018-08-11T23:55:08.685Z,5.57
2018-08-11T23:57:37.241Z,5.30
